sensor_id;sensor_type;location;lat;lon;timestamp;P1;durP1;ratioP1;P2;durP2;ratioP2
51296;SDS011;37380;45.186;9.792;2023-05-21T00:00:20;24.20;;;20.88;;
51296;SDS011;37380;45.186;9.792;2023-05-21T00:02:47;34.38;;;20.73;;
51296;SDS011;37380;45.186;9.792;2023-05-21T00:05:15;22.20;;;19.38;;
51296;SDS011;37380;45.186;9.792;2023-05-21T00:07:50;28.60;;;22.77;;
51296;SDS011;37380;45.186;9.792;2023-05-21T00:10:51;29.23;;;20.48;;
51296;SDS011;37380;45.186;9.792;2023-05-21T00:13:55;24.10;;;19.77;;
51296;SDS011;37380;45.186;9.792;2023-05-21T00:16:49;25.17;;;22.52;;
51296;SDS011;37380;45.186;9.792;2023-05-21T00:19:17;23.02;;;20.60;;
51296;SDS011;37380;45.186;9.792;2023-05-21T00:21:44;26.25;;;19.02;;
51296;SDS011;37380;45.186;9.792;2023-05-21T00:24:14;31.05;;;20.73;;
51296;SDS011;37380;45.186;9.792;2023-05-21T00:26:41;44.20;;;22.02;;
51296;SDS011;37380;45.186;9.792;2023-05-21T00:29:08;34.42;;;19.83;;
51296;SDS011;37380;45.186;9.792;2023-05-21T00:31:36;23.52;;;20.67;;
51296;SDS011;37380;45.186;9.792;2023-05-21T00:34:03;21.38;;;19.10;;
51296;SDS011;37380;45.186;9.792;2023-05-21T00:36:30;26.00;;;21.98;;
51296;SDS011;37380;45.186;9.792;2023-05-21T00:39:00;25.40;;;21.67;;
51296;SDS011;37380;45.186;9.792;2023-05-21T00:41:28;35.28;;;20.88;;
51296;SDS011;37380;45.186;9.792;2023-05-21T00:43:56;23.20;;;20.88;;
51296;SDS011;37380;45.186;9.792;2023-05-21T00:46:25;30.67;;;21.30;;
51296;SDS011;37380;45.186;9.792;2023-05-21T00:48:56;22.33;;;19.98;;
51296;SDS011;37380;45.186;9.792;2023-05-21T00:51:30;29.73;;;21.75;;
51296;SDS011;37380;45.186;9.792;2023-05-21T00:54:31;29.85;;;20.38;;
51296;SDS011;37380;45.186;9.792;2023-05-21T00:57:25;27.52;;;21.13;;
51296;SDS011;37380;45.186;9.792;2023-05-21T00:59:55;28.80;;;19.30;;
51296;SDS011;37380;45.186;9.792;2023-05-21T01:02:23;22.13;;;19.83;;
51296;SDS011;37380;45.186;9.792;2023-05-21T01:04:58;21.70;;;19.52;;
51296;SDS011;37380;45.186;9.792;2023-05-21T01:07:59;34.30;;;19.10;;
51296;SDS011;37380;45.186;9.792;2023-05-21T01:10:34;29.75;;;19.45;;
51296;SDS011;37380;45.186;9.792;2023-05-21T01:13:01;26.02;;;21.10;;
51296;SDS011;37380;45.186;9.792;2023-05-21T01:15:29;23.80;;;21.17;;
51296;SDS011;37380;45.186;9.792;2023-05-21T01:17:57;24.83;;;22.30;;
51296;SDS011;37380;45.186;9.792;2023-05-21T01:20:24;24.75;;;22.10;;
51296;SDS011;37380;45.186;9.792;2023-05-21T01:22:53;25.45;;;22.15;;
51296;SDS011;37380;45.186;9.792;2023-05-21T01:25:23;26.48;;;19.40;;
51296;SDS011;37380;45.186;9.792;2023-05-21T01:27:50;24.08;;;21.52;;
51296;SDS011;37380;45.186;9.792;2023-05-21T01:30:18;23.13;;;20.70;;
51296;SDS011;37380;45.186;9.792;2023-05-21T01:35:29;29.38;;;23.98;;
51296;SDS011;37380;45.186;9.792;2023-05-21T01:38:08;31.60;;;21.83;;
51296;SDS011;37380;45.186;9.792;2023-05-21T01:40:53;33.08;;;23.50;;
51296;SDS011;37380;45.186;9.792;2023-05-21T01:43:25;24.23;;;20.30;;
51296;SDS011;37380;45.186;9.792;2023-05-21T01:45:55;25.77;;;22.83;;
51296;SDS011;37380;45.186;9.792;2023-05-21T01:48:26;26.45;;;21.88;;
51296;SDS011;37380;45.186;9.792;2023-05-21T01:51:02;25.17;;;21.25;;
51296;SDS011;37380;45.186;9.792;2023-05-21T01:54:05;27.70;;;23.40;;
51296;SDS011;37380;45.186;9.792;2023-05-21T01:57:05;28.45;;;25.00;;
51296;SDS011;37380;45.186;9.792;2023-05-21T01:59:33;28.38;;;25.50;;
51296;SDS011;37380;45.186;9.792;2023-05-21T02:02:00;26.10;;;23.48;;
51296;SDS011;37380;45.186;9.792;2023-05-21T02:04:35;27.63;;;24.67;;
51296;SDS011;37380;45.186;9.792;2023-05-21T02:07:29;28.20;;;25.20;;
51296;SDS011;37380;45.186;9.792;2023-05-21T02:09:59;26.30;;;22.67;;
51296;SDS011;37380;45.186;9.792;2023-05-21T02:12:34;30.92;;;25.15;;
51296;SDS011;37380;45.186;9.792;2023-05-21T02:15:29;26.60;;;23.92;;
51296;SDS011;37380;45.186;9.792;2023-05-21T02:17:56;26.63;;;23.75;;
51296;SDS011;37380;45.186;9.792;2023-05-21T02:20:24;30.50;;;27.27;;
51296;SDS011;37380;45.186;9.792;2023-05-21T02:22:52;30.58;;;25.80;;
51296;SDS011;37380;45.186;9.792;2023-05-21T02:25:19;29.92;;;25.98;;
51296;SDS011;37380;45.186;9.792;2023-05-21T02:27:47;32.28;;;25.85;;
51296;SDS011;37380;45.186;9.792;2023-05-21T02:30:19;29.85;;;26.40;;
51296;SDS011;37380;45.186;9.792;2023-05-21T02:32:46;33.63;;;26.95;;
51296;SDS011;37380;45.186;9.792;2023-05-21T02:35:15;31.98;;;27.63;;
51296;SDS011;37380;45.186;9.792;2023-05-21T02:37:43;38.05;;;30.42;;
51296;SDS011;37380;45.186;9.792;2023-05-21T02:40:10;43.92;;;32.65;;
51296;SDS011;37380;45.186;9.792;2023-05-21T02:42:38;34.25;;;29.67;;
51296;SDS011;37380;45.186;9.792;2023-05-21T02:45:11;35.78;;;27.63;;
51296;SDS011;37380;45.186;9.792;2023-05-21T02:47:41;28.33;;;25.35;;
51296;SDS011;37380;45.186;9.792;2023-05-21T02:50:08;36.55;;;25.42;;
51296;SDS011;37380;45.186;9.792;2023-05-21T02:52:47;39.78;;;25.20;;
51296;SDS011;37380;45.186;9.792;2023-05-21T02:55:28;37.50;;;26.30;;
51296;SDS011;37380;45.186;9.792;2023-05-21T02:57:56;25.70;;;23.17;;
51296;SDS011;37380;45.186;9.792;2023-05-21T03:00:24;27.95;;;24.95;;
51296;SDS011;37380;45.186;9.792;2023-05-21T03:03:51;32.40;;;24.85;;
51296;SDS011;37380;45.186;9.792;2023-05-21T03:06:52;32.65;;;26.73;;
51296;SDS011;37380;45.186;9.792;2023-05-21T03:09:41;29.58;;;24.92;;
51296;SDS011;37380;45.186;9.792;2023-05-21T03:12:09;35.30;;;25.60;;
51296;SDS011;37380;45.186;9.792;2023-05-21T03:14:37;28.10;;;22.95;;
51296;SDS011;37380;45.186;9.792;2023-05-21T03:17:08;37.42;;;23.45;;
51296;SDS011;37380;45.186;9.792;2023-05-21T03:19:43;25.58;;;22.30;;
51296;SDS011;37380;45.186;9.792;2023-05-21T03:22:20;25.00;;;21.40;;
51296;SDS011;37380;45.186;9.792;2023-05-21T03:25:05;22.63;;;19.38;;
51296;SDS011;37380;45.186;9.792;2023-05-21T03:27:41;24.17;;;18.63;;
51296;SDS011;37380;45.186;9.792;2023-05-21T03:30:35;21.63;;;19.13;;
51296;SDS011;37380;45.186;9.792;2023-05-21T03:33:25;22.50;;;20.05;;
51296;SDS011;37380;45.186;9.792;2023-05-21T03:35:53;23.33;;;18.60;;
51296;SDS011;37380;45.186;9.792;2023-05-21T03:38:22;29.92;;;17.63;;
51296;SDS011;37380;45.186;9.792;2023-05-21T03:40:56;20.38;;;16.70;;
51296;SDS011;37380;45.186;9.792;2023-05-21T03:43:25;22.35;;;16.92;;
51296;SDS011;37380;45.186;9.792;2023-05-21T03:45:54;20.95;;;17.45;;
51296;SDS011;37380;45.186;9.792;2023-05-21T03:48:42;20.27;;;16.60;;
51296;SDS011;37380;45.186;9.792;2023-05-21T03:51:19;17.98;;;15.57;;
51296;SDS011;37380;45.186;9.792;2023-05-21T03:54:06;23.50;;;16.50;;
51296;SDS011;37380;45.186;9.792;2023-05-21T03:56:35;19.05;;;17.15;;
51296;SDS011;37380;45.186;9.792;2023-05-21T03:59:12;21.27;;;16.45;;
51296;SDS011;37380;45.186;9.792;2023-05-21T04:02:06;17.73;;;15.93;;
51296;SDS011;37380;45.186;9.792;2023-05-21T04:04:34;18.17;;;16.35;;
51296;SDS011;37380;45.186;9.792;2023-05-21T04:07:13;20.30;;;17.08;;
51296;SDS011;37380;45.186;9.792;2023-05-21T04:12:26;17.27;;;15.23;;
51296;SDS011;37380;45.186;9.792;2023-05-21T04:14:56;17.33;;;15.45;;
51296;SDS011;37380;45.186;9.792;2023-05-21T04:17:31;16.30;;;14.10;;
51296;SDS011;37380;45.186;9.792;2023-05-21T04:20:01;16.42;;;14.93;;
51296;SDS011;37380;45.186;9.792;2023-05-21T04:22:35;15.98;;;14.40;;
51296;SDS011;37380;45.186;9.792;2023-05-21T04:25:10;25.75;;;15.80;;
51296;SDS011;37380;45.186;9.792;2023-05-21T04:27:38;16.48;;;14.77;;
51296;SDS011;37380;45.186;9.792;2023-05-21T04:30:06;18.38;;;15.57;;
51296;SDS011;37380;45.186;9.792;2023-05-21T04:32:35;17.35;;;15.68;;
51296;SDS011;37380;45.186;9.792;2023-05-21T04:35:06;15.30;;;13.75;;
51296;SDS011;37380;45.186;9.792;2023-05-21T04:37:42;19.83;;;14.73;;
51296;SDS011;37380;45.186;9.792;2023-05-21T04:40:15;20.75;;;14.80;;
51296;SDS011;37380;45.186;9.792;2023-05-21T04:43:01;15.35;;;12.95;;
51296;SDS011;37380;45.186;9.792;2023-05-21T04:45:38;15.02;;;13.38;;
51296;SDS011;37380;45.186;9.792;2023-05-21T04:48:26;16.25;;;14.48;;
51296;SDS011;37380;45.186;9.792;2023-05-21T04:51:00;15.55;;;13.95;;
51296;SDS011;37380;45.186;9.792;2023-05-21T04:54:01;15.73;;;13.65;;
51296;SDS011;37380;45.186;9.792;2023-05-21T04:57:02;16.65;;;13.32;;
51296;SDS011;37380;45.186;9.792;2023-05-21T05:00:03;18.98;;;13.02;;
51296;SDS011;37380;45.186;9.792;2023-05-21T05:02:58;15.60;;;14.00;;
51296;SDS011;37380;45.186;9.792;2023-05-21T05:05:26;17.42;;;14.20;;
51296;SDS011;37380;45.186;9.792;2023-05-21T05:07:53;13.82;;;12.52;;
51296;SDS011;37380;45.186;9.792;2023-05-21T05:10:27;21.23;;;12.20;;
51296;SDS011;37380;45.186;9.792;2023-05-21T05:13:15;16.88;;;12.45;;
51296;SDS011;37380;45.186;9.792;2023-05-21T05:18:31;13.77;;;12.32;;
51296;SDS011;37380;45.186;9.792;2023-05-21T05:21:12;12.35;;;11.10;;
51296;SDS011;37380;45.186;9.792;2023-05-21T05:23:44;18.23;;;11.10;;
51296;SDS011;37380;45.186;9.792;2023-05-21T05:26:27;19.55;;;13.05;;
51296;SDS011;37380;45.186;9.792;2023-05-21T05:29:07;13.38;;;11.90;;
51296;SDS011;37380;45.186;9.792;2023-05-21T05:31:42;14.05;;;11.77;;
51296;SDS011;37380;45.186;9.792;2023-05-21T05:34:14;13.85;;;12.35;;
51296;SDS011;37380;45.186;9.792;2023-05-21T05:36:54;12.55;;;11.27;;
51296;SDS011;37380;45.186;9.792;2023-05-21T05:39:30;17.85;;;11.60;;
51296;SDS011;37380;45.186;9.792;2023-05-21T05:41:59;13.27;;;12.10;;
51296;SDS011;37380;45.186;9.792;2023-05-21T05:44:26;12.75;;;11.45;;
51296;SDS011;37380;45.186;9.792;2023-05-21T05:47:08;13.05;;;10.73;;
51296;SDS011;37380;45.186;9.792;2023-05-21T05:49:39;16.58;;;11.10;;
51296;SDS011;37380;45.186;9.792;2023-05-21T05:52:19;12.65;;;11.43;;
51296;SDS011;37380;45.186;9.792;2023-05-21T05:55:20;15.48;;;11.15;;
51296;SDS011;37380;45.186;9.792;2023-05-21T05:58:21;11.55;;;10.43;;
51296;SDS011;37380;45.186;9.792;2023-05-21T06:01:17;12.57;;;10.48;;
51296;SDS011;37380;45.186;9.792;2023-05-21T06:03:48;12.18;;;10.63;;
51296;SDS011;37380;45.186;9.792;2023-05-21T06:06:17;10.43;;;9.40;;
51296;SDS011;37380;45.186;9.792;2023-05-21T06:09:21;12.45;;;11.35;;
51296;SDS011;37380;45.186;9.792;2023-05-21T06:12:23;11.88;;;10.60;;
51296;SDS011;37380;45.186;9.792;2023-05-21T06:15:00;17.13;;;11.82;;
51296;SDS011;37380;45.186;9.792;2023-05-21T06:17:40;14.40;;;11.05;;
51296;SDS011;37380;45.186;9.792;2023-05-21T06:20:12;18.48;;;10.18;;
51296;SDS011;37380;45.186;9.792;2023-05-21T06:22:39;13.95;;;10.38;;
51296;SDS011;37380;45.186;9.792;2023-05-21T06:25:09;11.82;;;9.90;;
51296;SDS011;37380;45.186;9.792;2023-05-21T06:27:42;13.70;;;10.75;;
51296;SDS011;37380;45.186;9.792;2023-05-21T06:30:16;11.05;;;9.93;;
51296;SDS011;37380;45.186;9.792;2023-05-21T06:32:54;19.73;;;10.35;;
51296;SDS011;37380;45.186;9.792;2023-05-21T06:35:58;10.35;;;9.35;;
51296;SDS011;37380;45.186;9.792;2023-05-21T06:38:57;13.10;;;10.35;;
51296;SDS011;37380;45.186;9.792;2023-05-21T06:41:54;10.70;;;9.52;;
51296;SDS011;37380;45.186;9.792;2023-05-21T06:45:26;16.05;;;10.13;;
51296;SDS011;37380;45.186;9.792;2023-05-21T06:48:11;12.13;;;9.52;;
51296;SDS011;37380;45.186;9.792;2023-05-21T06:51:03;11.52;;;10.25;;
51296;SDS011;37380;45.186;9.792;2023-05-21T06:54:22;10.27;;;9.25;;
51296;SDS011;37380;45.186;9.792;2023-05-21T06:58:14;10.88;;;9.88;;
51296;SDS011;37380;45.186;9.792;2023-05-21T07:01:44;11.13;;;9.98;;
51296;SDS011;37380;45.186;9.792;2023-05-21T07:06:52;10.40;;;9.40;;
51296;SDS011;37380;45.186;9.792;2023-05-21T07:09:32;14.57;;;10.63;;
51296;SDS011;37380;45.186;9.792;2023-05-21T07:12:11;12.73;;;10.35;;
51296;SDS011;37380;45.186;9.792;2023-05-21T07:14:43;11.07;;;10.02;;
51296;SDS011;37380;45.186;9.792;2023-05-21T07:17:24;12.77;;;10.32;;
51296;SDS011;37380;45.186;9.792;2023-05-21T07:20:16;17.50;;;10.32;;
51296;SDS011;37380;45.186;9.792;2023-05-21T07:22:53;11.23;;;10.13;;
51296;SDS011;37380;45.186;9.792;2023-05-21T07:25:25;14.27;;;9.30;;
51296;SDS011;37380;45.186;9.792;2023-05-21T07:27:56;11.77;;;10.77;;
51296;SDS011;37380;45.186;9.792;2023-05-21T07:30:29;15.23;;;10.60;;
51296;SDS011;37380;45.186;9.792;2023-05-21T07:33:09;11.48;;;10.40;;
51296;SDS011;37380;45.186;9.792;2023-05-21T07:36:29;11.10;;;10.02;;
51296;SDS011;37380;45.186;9.792;2023-05-21T07:39:08;16.08;;;11.40;;
51296;SDS011;37380;45.186;9.792;2023-05-21T07:41:41;13.48;;;11.82;;
51296;SDS011;37380;45.186;9.792;2023-05-21T07:44:35;12.18;;;9.55;;
51296;SDS011;37380;45.186;9.792;2023-05-21T07:47:19;11.15;;;10.05;;
51296;SDS011;37380;45.186;9.792;2023-05-21T07:49:49;12.25;;;10.77;;
51296;SDS011;37380;45.186;9.792;2023-05-21T07:53:25;11.57;;;10.30;;
51296;SDS011;37380;45.186;9.792;2023-05-21T07:56:32;16.95;;;10.32;;
51296;SDS011;37380;45.186;9.792;2023-05-21T07:59:26;13.05;;;11.73;;
51296;SDS011;37380;45.186;9.792;2023-05-21T08:01:56;14.27;;;12.82;;
51296;SDS011;37380;45.186;9.792;2023-05-21T08:04:31;14.77;;;13.05;;
51296;SDS011;37380;45.186;9.792;2023-05-21T08:07:05;19.92;;;11.98;;
51296;SDS011;37380;45.186;9.792;2023-05-21T08:09:48;12.82;;;10.43;;
51296;SDS011;37380;45.186;9.792;2023-05-21T08:13:07;14.25;;;10.38;;
51296;SDS011;37380;45.186;9.792;2023-05-21T08:16:42;13.32;;;9.90;;
51296;SDS011;37380;45.186;9.792;2023-05-21T08:19:15;11.80;;;10.07;;
51296;SDS011;37380;45.186;9.792;2023-05-21T08:21:52;11.80;;;10.75;;
51296;SDS011;37380;45.186;9.792;2023-05-21T08:24:31;11.93;;;10.27;;
51296;SDS011;37380;45.186;9.792;2023-05-21T08:27:09;12.30;;;11.05;;
51296;SDS011;37380;45.186;9.792;2023-05-21T08:29:42;10.95;;;9.90;;
51296;SDS011;37380;45.186;9.792;2023-05-21T08:32:26;9.50;;;8.55;;
51296;SDS011;37380;45.186;9.792;2023-05-21T08:35:30;9.55;;;8.65;;
51296;SDS011;37380;45.186;9.792;2023-05-21T08:38:37;9.85;;;7.65;;
51296;SDS011;37380;45.186;9.792;2023-05-21T08:41:17;8.55;;;7.85;;
51296;SDS011;37380;45.186;9.792;2023-05-21T08:43:55;7.85;;;7.20;;
51296;SDS011;37380;45.186;9.792;2023-05-21T08:46:37;8.50;;;7.85;;
51296;SDS011;37380;45.186;9.792;2023-05-21T08:49:21;8.70;;;7.78;;
51296;SDS011;37380;45.186;9.792;2023-05-21T08:52:54;15.20;;;8.60;;
51296;SDS011;37380;45.186;9.792;2023-05-21T08:56:26;8.48;;;7.68;;
51296;SDS011;37380;45.186;9.792;2023-05-21T08:59:23;10.65;;;7.72;;
51296;SDS011;37380;45.186;9.792;2023-05-21T09:02:32;14.93;;;8.07;;
51296;SDS011;37380;45.186;9.792;2023-05-21T09:05:13;8.82;;;7.65;;
51296;SDS011;37380;45.186;9.792;2023-05-21T09:08:30;7.13;;;6.53;;
51296;SDS011;37380;45.186;9.792;2023-05-21T09:11:33;8.60;;;7.70;;
51296;SDS011;37380;45.186;9.792;2023-05-21T09:14:07;12.98;;;7.57;;
51296;SDS011;37380;45.186;9.792;2023-05-21T09:17:15;8.80;;;6.75;;
51296;SDS011;37380;45.186;9.792;2023-05-21T09:20:37;8.35;;;7.63;;
51296;SDS011;37380;45.186;9.792;2023-05-21T09:23:31;7.22;;;6.55;;
51296;SDS011;37380;45.186;9.792;2023-05-21T09:26:09;9.27;;;6.88;;
51296;SDS011;37380;45.186;9.792;2023-05-21T09:28:46;10.25;;;8.00;;
51296;SDS011;37380;45.186;9.792;2023-05-21T09:31:30;8.55;;;7.80;;
51296;SDS011;37380;45.186;9.792;2023-05-21T09:34:05;8.60;;;7.60;;
51296;SDS011;37380;45.186;9.792;2023-05-21T09:36:47;7.78;;;7.05;;
51296;SDS011;37380;45.186;9.792;2023-05-21T09:39:51;12.00;;;8.00;;
51296;SDS011;37380;45.186;9.792;2023-05-21T09:42:46;10.32;;;6.68;;
51296;SDS011;37380;45.186;9.792;2023-05-21T09:47:57;8.30;;;7.50;;
51296;SDS011;37380;45.186;9.792;2023-05-21T09:51:17;10.75;;;7.75;;
51296;SDS011;37380;45.186;9.792;2023-05-21T09:54:12;9.52;;;8.65;;
51296;SDS011;37380;45.186;9.792;2023-05-21T09:56:39;10.60;;;8.30;;
51296;SDS011;37380;45.186;9.792;2023-05-21T09:59:07;9.50;;;8.30;;
51296;SDS011;37380;45.186;9.792;2023-05-21T10:01:34;8.02;;;7.40;;
51296;SDS011;37380;45.186;9.792;2023-05-21T10:04:05;9.38;;;8.48;;
51296;SDS011;37380;45.186;9.792;2023-05-21T10:06:33;11.20;;;7.28;;
51296;SDS011;37380;45.186;9.792;2023-05-21T10:09:13;8.57;;;7.82;;
51296;SDS011;37380;45.186;9.792;2023-05-21T10:11:43;9.45;;;8.30;;
51296;SDS011;37380;45.186;9.792;2023-05-21T10:14:13;10.38;;;7.78;;
51296;SDS011;37380;45.186;9.792;2023-05-21T10:16:45;7.93;;;7.20;;
51296;SDS011;37380;45.186;9.792;2023-05-21T10:19:14;9.88;;;8.77;;
51296;SDS011;37380;45.186;9.792;2023-05-21T10:21:43;10.38;;;8.35;;
51296;SDS011;37380;45.186;9.792;2023-05-21T10:24:11;9.13;;;8.05;;
51296;SDS011;37380;45.186;9.792;2023-05-21T10:26:39;17.52;;;8.68;;
51296;SDS011;37380;45.186;9.792;2023-05-21T10:29:07;12.43;;;8.15;;
51296;SDS011;37380;45.186;9.792;2023-05-21T10:31:34;9.18;;;8.48;;
51296;SDS011;37380;45.186;9.792;2023-05-21T10:34:04;9.48;;;8.68;;
51296;SDS011;37380;45.186;9.792;2023-05-21T10:36:32;11.15;;;9.02;;
51296;SDS011;37380;45.186;9.792;2023-05-21T10:39:02;10.82;;;9.88;;
51296;SDS011;37380;45.186;9.792;2023-05-21T10:44:31;10.65;;;9.30;;
51296;SDS011;37380;45.186;9.792;2023-05-21T10:51:20;15.52;;;11.25;;
51296;SDS011;37380;45.186;9.792;2023-05-21T10:59:53;11.77;;;10.68;;
51296;SDS011;37380;45.186;9.792;2023-05-21T11:02:20;11.48;;;10.57;;
51296;SDS011;37380;45.186;9.792;2023-05-21T11:04:59;13.02;;;11.73;;
51296;SDS011;37380;45.186;9.792;2023-05-21T11:10:28;18.55;;;11.30;;
51296;SDS011;37380;45.186;9.792;2023-05-21T11:13:12;14.20;;;12.88;;
51296;SDS011;37380;45.186;9.792;2023-05-21T11:18:55;15.10;;;12.32;;
51296;SDS011;37380;45.186;9.792;2023-05-21T11:21:23;13.98;;;12.70;;
51296;SDS011;37380;45.186;9.792;2023-05-21T11:23:54;15.25;;;13.90;;
51296;SDS011;37380;45.186;9.792;2023-05-21T11:26:27;18.60;;;14.88;;
51296;SDS011;37380;45.186;9.792;2023-05-21T11:31:29;14.40;;;13.00;;
51296;SDS011;37380;45.186;9.792;2023-05-21T11:37:22;23.42;;;13.23;;
51296;SDS011;37380;45.186;9.792;2023-05-21T11:40:27;13.18;;;12.15;;
51296;SDS011;37380;45.186;9.792;2023-05-21T11:43:30;15.07;;;12.23;;
51296;SDS011;37380;45.186;9.792;2023-05-21T11:46:39;15.77;;;14.10;;
51296;SDS011;37380;45.186;9.792;2023-05-21T11:49:44;14.95;;;13.50;;
51296;SDS011;37380;45.186;9.792;2023-05-21T11:52:45;18.50;;;13.90;;
51296;SDS011;37380;45.186;9.792;2023-05-21T11:55:14;14.80;;;13.13;;
51296;SDS011;37380;45.186;9.792;2023-05-21T11:57:50;22.15;;;15.60;;
51296;SDS011;37380;45.186;9.792;2023-05-21T12:03:12;18.23;;;14.35;;
51296;SDS011;37380;45.186;9.792;2023-05-21T12:08:59;14.93;;;13.43;;
51296;SDS011;37380;45.186;9.792;2023-05-21T12:11:39;14.43;;;11.73;;
51296;SDS011;37380;45.186;9.792;2023-05-21T12:17:14;14.93;;;13.32;;
51296;SDS011;37380;45.186;9.792;2023-05-21T12:19:55;13.38;;;11.98;;
51296;SDS011;37380;45.186;9.792;2023-05-21T12:22:26;14.07;;;12.20;;
51296;SDS011;37380;45.186;9.792;2023-05-21T12:25:04;14.50;;;13.00;;
51296;SDS011;37380;45.186;9.792;2023-05-21T12:27:39;17.48;;;12.13;;
51296;SDS011;37380;45.186;9.792;2023-05-21T12:30:39;15.00;;;13.35;;
51296;SDS011;37380;45.186;9.792;2023-05-21T12:33:18;19.38;;;13.93;;
51296;SDS011;37380;45.186;9.792;2023-05-21T12:36:06;13.35;;;12.13;;
51296;SDS011;37380;45.186;9.792;2023-05-21T12:39:27;13.70;;;12.30;;
51296;SDS011;37380;45.186;9.792;2023-05-21T12:42:44;14.80;;;13.43;;
51296;SDS011;37380;45.186;9.792;2023-05-21T12:45:25;16.20;;;12.90;;
51296;SDS011;37380;45.186;9.792;2023-05-21T12:48:08;15.13;;;13.73;;
51296;SDS011;37380;45.186;9.792;2023-05-21T12:50:41;21.48;;;14.20;;
51296;SDS011;37380;45.186;9.792;2023-05-21T12:53:13;14.07;;;12.80;;
51296;SDS011;37380;45.186;9.792;2023-05-21T12:55:55;15.75;;;13.23;;
51296;SDS011;37380;45.186;9.792;2023-05-21T12:58:26;15.10;;;12.55;;
51296;SDS011;37380;45.186;9.792;2023-05-21T13:01:31;15.43;;;13.88;;
51296;SDS011;37380;45.186;9.792;2023-05-21T13:04:58;19.75;;;12.85;;
51296;SDS011;37380;45.186;9.792;2023-05-21T13:08:11;13.05;;;11.93;;
51296;SDS011;37380;45.186;9.792;2023-05-21T13:11:09;20.15;;;12.77;;
51296;SDS011;37380;45.186;9.792;2023-05-21T13:13:42;17.27;;;12.48;;
51296;SDS011;37380;45.186;9.792;2023-05-21T13:16:14;20.05;;;13.20;;
51296;SDS011;37380;45.186;9.792;2023-05-21T13:19:00;13.80;;;12.50;;
51296;SDS011;37380;45.186;9.792;2023-05-21T13:21:33;14.68;;;13.27;;
51296;SDS011;37380;45.186;9.792;2023-05-21T13:24:21;14.90;;;12.68;;
51296;SDS011;37380;45.186;9.792;2023-05-21T13:26:59;14.82;;;13.13;;
51296;SDS011;37380;45.186;9.792;2023-05-21T13:33:15;16.65;;;14.98;;
51296;SDS011;37380;45.186;9.792;2023-05-21T13:35:58;15.32;;;14.02;;
51296;SDS011;37380;45.186;9.792;2023-05-21T13:38:51;15.15;;;13.65;;
51296;SDS011;37380;45.186;9.792;2023-05-21T13:41:57;19.73;;;15.25;;
51296;SDS011;37380;45.186;9.792;2023-05-21T13:44:42;15.10;;;13.45;;
51296;SDS011;37380;45.186;9.792;2023-05-21T13:47:46;16.42;;;14.45;;
51296;SDS011;37380;45.186;9.792;2023-05-21T13:50:51;18.58;;;14.52;;
51296;SDS011;37380;45.186;9.792;2023-05-21T13:53:36;15.18;;;13.75;;
51296;SDS011;37380;45.186;9.792;2023-05-21T14:01:46;15.55;;;13.90;;
51296;SDS011;37380;45.186;9.792;2023-05-21T14:05:08;24.27;;;13.90;;
51296;SDS011;37380;45.186;9.792;2023-05-21T14:08:12;18.83;;;15.85;;
51296;SDS011;37380;45.186;9.792;2023-05-21T14:11:15;19.95;;;14.90;;
51296;SDS011;37380;45.186;9.792;2023-05-21T14:14:04;17.73;;;14.88;;
51296;SDS011;37380;45.186;9.792;2023-05-21T14:16:37;15.32;;;13.82;;
51296;SDS011;37380;45.186;9.792;2023-05-21T14:19:20;14.43;;;12.85;;
51296;SDS011;37380;45.186;9.792;2023-05-21T14:22:22;14.60;;;13.10;;
51296;SDS011;37380;45.186;9.792;2023-05-21T14:24:50;15.48;;;13.30;;
51296;SDS011;37380;45.186;9.792;2023-05-21T14:27:40;14.45;;;13.10;;
51296;SDS011;37380;45.186;9.792;2023-05-21T14:30:40;18.13;;;13.55;;
51296;SDS011;37380;45.186;9.792;2023-05-21T14:33:48;14.70;;;12.55;;
51296;SDS011;37380;45.186;9.792;2023-05-21T14:37:07;15.60;;;12.25;;
51296;SDS011;37380;45.186;9.792;2023-05-21T14:40:27;17.92;;;13.07;;
51296;SDS011;37380;45.186;9.792;2023-05-21T14:43:25;18.88;;;13.07;;
51296;SDS011;37380;45.186;9.792;2023-05-21T14:46:05;13.88;;;12.57;;
51296;SDS011;37380;45.186;9.792;2023-05-21T14:48:48;16.15;;;14.57;;
51296;SDS011;37380;45.186;9.792;2023-05-21T14:51:33;28.02;;;14.23;;
51296;SDS011;37380;45.186;9.792;2023-05-21T14:54:14;17.02;;;13.85;;
51296;SDS011;37380;45.186;9.792;2023-05-21T14:56:51;15.82;;;14.27;;
51296;SDS011;37380;45.186;9.792;2023-05-21T14:59:48;14.80;;;13.48;;
51296;SDS011;37380;45.186;9.792;2023-05-21T15:02:23;16.17;;;13.95;;
51296;SDS011;37380;45.186;9.792;2023-05-21T15:05:13;16.20;;;14.73;;
51296;SDS011;37380;45.186;9.792;2023-05-21T15:08:47;19.15;;;13.75;;
51296;SDS011;37380;45.186;9.792;2023-05-21T15:11:57;15.63;;;14.15;;
51296;SDS011;37380;45.186;9.792;2023-05-21T15:14:56;15.82;;;14.15;;
51296;SDS011;37380;45.186;9.792;2023-05-21T15:18:01;23.15;;;14.40;;
51296;SDS011;37380;45.186;9.792;2023-05-21T15:20:47;15.65;;;13.43;;
51296;SDS011;37380;45.186;9.792;2023-05-21T15:24:11;13.85;;;12.52;;
51296;SDS011;37380;45.186;9.792;2023-05-21T15:27:24;13.90;;;12.52;;
51296;SDS011;37380;45.186;9.792;2023-05-21T15:30:33;13.38;;;12.13;;
51296;SDS011;37380;45.186;9.792;2023-05-21T15:33:26;14.55;;;13.15;;
51296;SDS011;37380;45.186;9.792;2023-05-21T15:36:48;17.58;;;14.15;;
51296;SDS011;37380;45.186;9.792;2023-05-21T15:39:52;12.63;;;11.43;;
51296;SDS011;37380;45.186;9.792;2023-05-21T15:43:05;16.85;;;14.48;;
51296;SDS011;37380;45.186;9.792;2023-05-21T15:46:54;16.67;;;13.10;;
51296;SDS011;37380;45.186;9.792;2023-05-21T15:49:52;17.23;;;12.38;;
51296;SDS011;37380;45.186;9.792;2023-05-21T15:52:27;15.45;;;13.90;;
51296;SDS011;37380;45.186;9.792;2023-05-21T15:55:15;14.25;;;12.95;;
51296;SDS011;37380;45.186;9.792;2023-05-21T15:58:40;13.05;;;11.75;;
51296;SDS011;37380;45.186;9.792;2023-05-21T16:02:12;12.80;;;11.65;;
51296;SDS011;37380;45.186;9.792;2023-05-21T16:05:35;16.20;;;14.07;;
51296;SDS011;37380;45.186;9.792;2023-05-21T16:08:37;14.73;;;13.40;;
51296;SDS011;37380;45.186;9.792;2023-05-21T16:11:42;15.52;;;13.90;;
51296;SDS011;37380;45.186;9.792;2023-05-21T16:14:53;18.80;;;13.32;;
51296;SDS011;37380;45.186;9.792;2023-05-21T16:18:28;16.70;;;12.65;;
51296;SDS011;37380;45.186;9.792;2023-05-21T16:22:00;13.48;;;11.93;;
51296;SDS011;37380;45.186;9.792;2023-05-21T16:25:09;14.55;;;13.18;;
51296;SDS011;37380;45.186;9.792;2023-05-21T16:28:30;14.00;;;12.77;;
51296;SDS011;37380;45.186;9.792;2023-05-21T16:31:39;13.50;;;12.25;;
51296;SDS011;37380;45.186;9.792;2023-05-21T16:35:08;15.82;;;13.52;;
51296;SDS011;37380;45.186;9.792;2023-05-21T16:38:05;14.75;;;13.23;;
51296;SDS011;37380;45.186;9.792;2023-05-21T16:40:56;18.23;;;14.15;;
51296;SDS011;37380;45.186;9.792;2023-05-21T16:47:56;21.02;;;13.90;;
51296;SDS011;37380;45.186;9.792;2023-05-21T16:51:10;14.95;;;13.43;;
51296;SDS011;37380;45.186;9.792;2023-05-21T16:54:12;18.50;;;13.77;;
51296;SDS011;37380;45.186;9.792;2023-05-21T16:56:59;15.25;;;13.27;;
51296;SDS011;37380;45.186;9.792;2023-05-21T17:00:09;15.27;;;12.02;;
51296;SDS011;37380;45.186;9.792;2023-05-21T17:03:31;15.15;;;13.65;;
51296;SDS011;37380;45.186;9.792;2023-05-21T17:06:57;14.32;;;12.88;;
51296;SDS011;37380;45.186;9.792;2023-05-21T17:10:27;14.15;;;12.02;;
51296;SDS011;37380;45.186;9.792;2023-05-21T17:13:33;15.63;;;13.25;;